createdAt,value
2018-09-08T00:01:04.753Z,70.00
2018-09-08T00:03:33.286Z,70.40
2018-09-08T00:06:02.039Z,70.00
2018-09-08T00:08:30.555Z,70.10
2018-09-08T00:10:59.076Z,69.60
2018-09-08T00:13:28.613Z,69.50
2018-09-08T00:16:02.342Z,69.50
2018-09-08T00:18:36.218Z,69.70
2018-09-08T00:21:10.357Z,69.80
2018-09-08T00:23:44.167Z,69.50
2018-09-08T00:26:17.887Z,69.50
2018-09-08T00:28:51.079Z,69.80
2018-09-08T00:31:20.779Z,69.40
2018-09-08T00:33:49.572Z,69.70
2018-09-08T00:36:18.634Z,70.00
2018-09-08T00:38:47.291Z,70.30
2018-09-08T00:41:16.709Z,69.70
2018-09-08T00:43:47.103Z,70.00
2018-09-08T00:46:15.824Z,70.00
2018-09-08T00:48:45.356Z,69.80
2018-09-08T00:51:13.956Z,70.00
2018-09-08T00:53:43.034Z,69.00
2018-09-08T00:56:12.315Z,70.20
2018-09-08T00:58:45.427Z,69.90
2018-09-08T01:01:14.515Z,69.90
2018-09-08T01:03:43.849Z,69.40
2018-09-08T01:06:12.507Z,69.70
2018-09-08T01:08:41.376Z,69.80
2018-09-08T01:11:10.045Z,70.00
2018-09-08T01:13:38.591Z,69.70
2018-09-08T01:16:07.417Z,69.90
2018-09-08T01:18:37.579Z,69.70
2018-09-08T01:21:08.804Z,69.60
2018-09-08T01:23:37.626Z,69.50
2018-09-08T01:26:06.436Z,69.70
2018-09-08T01:28:35.135Z,69.30
2018-09-08T01:31:03.776Z,69.10
2018-09-08T01:33:32.543Z,69.90
2018-09-08T01:36:01.554Z,69.80
2018-09-08T01:38:30.207Z,69.90
2018-09-08T01:40:58.718Z,69.70
2018-09-08T01:43:28.019Z,69.60
2018-09-08T01:45:56.633Z,69.60
2018-09-08T01:48:25.127Z,69.90
2018-09-08T01:50:53.981Z,69.50
2018-09-08T01:53:23.547Z,69.70
2018-09-08T01:55:53.810Z,69.90
2018-09-08T01:58:22.292Z,69.70
2018-09-08T02:00:51.491Z,69.70
2018-09-08T02:03:20.021Z,69.90
2018-09-08T02:05:48.819Z,70.00
2018-09-08T02:08:17.464Z,69.90
2018-09-08T02:10:46.106Z,70.40
2018-09-08T02:13:14.826Z,70.40
2018-09-08T02:15:43.323Z,70.30
2018-09-08T02:18:11.851Z,70.20
2018-09-08T02:20:40.446Z,70.50
2018-09-08T02:23:09.010Z,69.80
2018-09-08T02:25:37.875Z,70.20
2018-09-08T02:28:06.899Z,70.30
2018-09-08T02:30:35.394Z,70.30
2018-09-08T02:33:04.370Z,70.40
2018-09-08T02:35:33.122Z,70.40
2018-09-08T02:38:01.767Z,70.40
2018-09-08T02:40:30.474Z,70.60
2018-09-08T02:42:59.139Z,70.20
2018-09-08T02:45:27.810Z,70.10
2018-09-08T02:47:56.386Z,70.00
2018-09-08T02:50:33.774Z,69.20
2018-09-08T02:53:02.170Z,68.90
2018-09-08T02:55:30.225Z,68.50
2018-09-08T02:57:58.298Z,68.90
2018-09-08T03:00:26.198Z,68.70
2018-09-08T03:02:53.738Z,68.40
2018-09-08T03:05:21.492Z,68.10
2018-09-08T03:07:48.868Z,67.60
2018-09-08T03:10:16.640Z,67.70
2018-09-08T03:12:44.080Z,67.60
2018-09-08T03:15:11.451Z,67.70
2018-09-08T03:17:38.877Z,67.40
2018-09-08T03:20:06.234Z,67.40
2018-09-08T03:22:33.656Z,67.40
2018-09-08T03:25:01.012Z,67.30
2018-09-08T03:27:28.611Z,67.60
2018-09-08T03:29:56.380Z,67.50
2018-09-08T03:32:23.755Z,67.40
2018-09-08T03:34:51.127Z,67.40
2018-09-08T03:37:18.559Z,67.60
2018-09-08T03:39:45.959Z,68.50
2018-09-08T03:42:13.359Z,68.30
2018-09-08T03:44:40.738Z,68.60
2018-09-08T03:47:08.130Z,68.80
2018-09-08T03:49:35.556Z,68.50
2018-09-08T03:52:03.094Z,67.90
2018-09-08T03:54:30.515Z,68.40
2018-09-08T03:56:57.927Z,68.20
2018-09-08T03:59:25.568Z,67.60
2018-09-08T04:01:52.995Z,67.40
2018-09-08T04:04:21.571Z,67.20
2018-09-08T04:06:50.361Z,67.10
2018-09-08T04:09:18.943Z,67.20
2018-09-08T04:11:47.618Z,67.80
2018-09-08T04:14:16.266Z,67.60
2018-09-08T04:16:46.388Z,67.40
2018-09-08T04:19:15.384Z,67.40
2018-09-08T04:21:44.844Z,67.50
2018-09-08T04:24:13.637Z,67.30
2018-09-08T04:26:42.101Z,67.30
2018-09-08T04:29:10.622Z,68.00
2018-09-08T04:31:39.223Z,67.60
2018-09-08T04:34:08.731Z,67.60
2018-09-08T04:36:38.141Z,67.30
2018-09-08T04:39:08.827Z,67.00
2018-09-08T04:41:37.867Z,67.40
2018-09-08T04:44:06.438Z,67.20
2018-09-08T04:46:35.092Z,67.60
2018-09-08T04:49:03.780Z,67.40
2018-09-08T04:51:32.294Z,67.60
2018-09-08T04:54:01.294Z,67.60
2018-09-08T04:56:30.251Z,66.90
2018-09-08T04:58:58.831Z,66.90
2018-09-08T05:01:27.919Z,68.10
2018-09-08T05:03:56.444Z,66.70
2018-09-08T05:06:25.143Z,66.50
2018-09-08T05:08:53.797Z,67.00
2018-09-08T05:11:22.253Z,67.10
2018-09-08T05:13:51.071Z,66.90
2018-09-08T05:16:19.605Z,66.90
2018-09-08T05:18:48.157Z,67.10
2018-09-08T05:21:17.406Z,66.50
2018-09-08T05:23:46.033Z,66.00
2018-09-08T05:26:14.604Z,66.70
2018-09-08T05:28:43.304Z,66.50
2018-09-08T05:31:12.294Z,66.60
2018-09-08T05:33:41.946Z,66.80
2018-09-08T05:36:10.803Z,66.70
2018-09-08T05:38:39.426Z,66.40
2018-09-08T05:41:07.994Z,67.30
2018-09-08T05:43:36.680Z,67.30
2018-09-08T05:46:05.244Z,67.50
2018-09-08T05:48:33.995Z,66.90
2018-09-08T05:51:02.728Z,66.40
2018-09-08T05:53:31.287Z,66.40
2018-09-08T05:55:59.874Z,67.00
2018-09-08T05:58:28.827Z,67.30
2018-09-08T06:00:57.983Z,67.40
2018-09-08T06:03:26.511Z,67.40
2018-09-08T06:05:55.411Z,66.90
2018-09-08T06:08:24.248Z,66.40
2018-09-08T06:10:53.017Z,66.50
2018-09-08T06:13:21.689Z,66.40
2018-09-08T06:15:50.803Z,66.40
2018-09-08T06:18:19.737Z,66.30
2018-09-08T06:20:48.991Z,66.40
2018-09-08T06:23:20.342Z,66.40
2018-09-08T06:25:48.979Z,66.60
2018-09-08T06:28:18.171Z,66.60
2018-09-08T06:30:47.306Z,66.40
2018-09-08T06:33:16.061Z,66.30
2018-09-08T06:35:44.644Z,66.40
2018-09-08T06:38:13.381Z,66.40
2018-09-08T06:40:42.861Z,66.70
2018-09-08T06:43:12.758Z,66.70
2018-09-08T06:45:41.588Z,66.70
2018-09-08T06:48:10.468Z,66.50
2018-09-08T06:50:39.175Z,66.60
2018-09-08T06:53:08.522Z,66.70
2018-09-08T06:55:37.699Z,66.70
2018-09-08T06:58:06.611Z,66.90
2018-09-08T07:00:36.082Z,65.30
2018-09-08T07:03:05.378Z,67.00
2018-09-08T07:05:34.233Z,66.90
2018-09-08T07:08:03.047Z,66.80
2018-09-08T07:10:31.580Z,66.60
2018-09-08T07:13:00.404Z,66.70
2018-09-08T07:15:28.939Z,66.30
2018-09-08T07:17:57.582Z,66.30
2018-09-08T07:20:26.851Z,66.20
2018-09-08T07:22:55.626Z,66.20
2018-09-08T07:25:24.528Z,66.10
2018-09-08T07:27:53.316Z,65.60
2018-09-08T07:30:23.242Z,65.60
2018-09-08T07:32:52.160Z,64.70
2018-09-08T07:35:21.292Z,64.70
2018-09-08T07:37:49.847Z,63.30
2018-09-08T07:40:18.588Z,61.90
2018-09-08T07:42:47.180Z,60.90
2018-09-08T07:45:15.955Z,60.40
2018-09-08T07:47:44.656Z,59.70
2018-09-08T07:50:13.478Z,59.20
2018-09-08T07:52:42.939Z,58.90
2018-09-08T07:55:11.791Z,58.30
2018-09-08T07:57:40.439Z,57.80
2018-09-08T08:00:09.248Z,57.60
2018-09-08T08:02:37.776Z,57.30
2018-09-08T08:05:07.192Z,55.80
2018-09-08T08:07:36.340Z,55.00
2018-09-08T08:10:05.160Z,54.30
2018-09-08T08:12:33.732Z,53.90
2018-09-08T08:15:02.549Z,53.40
2018-09-08T08:17:31.343Z,53.60
2018-09-08T08:20:00.150Z,53.20
2018-09-08T08:22:29.192Z,53.20
2018-09-08T08:24:57.880Z,52.80
2018-09-08T08:27:26.721Z,52.10
2018-09-08T08:29:55.386Z,51.70
2018-09-08T08:32:24.252Z,50.70
2018-09-08T08:34:53.379Z,51.30
2018-09-08T08:37:22.228Z,49.90
2018-09-08T08:39:51.072Z,50.50
2018-09-08T08:42:19.796Z,50.70
2018-09-08T08:44:48.734Z,51.50
2018-09-08T08:47:17.487Z,51.10
2018-09-08T08:49:53.567Z,51.10
2018-09-08T08:52:33.420Z,51.80
2018-09-08T08:55:01.464Z,51.50
2018-09-08T08:57:30.302Z,51.80
2018-09-08T08:59:58.894Z,52.10
2018-09-08T09:02:27.690Z,51.30
2018-09-08T09:04:56.305Z,51.10
2018-09-08T09:07:25.108Z,51.50
2018-09-08T09:09:53.688Z,51.10
2018-09-08T09:12:22.262Z,50.90
2018-09-08T09:14:50.755Z,51.20
2018-09-08T09:17:20.230Z,51.40
2018-09-08T09:20:00.243Z,51.40
2018-09-08T09:22:39.772Z,51.80
2018-09-08T09:25:09.500Z,51.80
2018-09-08T09:27:43.995Z,51.10
2018-09-08T09:30:13.176Z,51.60
2018-09-08T09:32:41.810Z,51.00
2018-09-08T09:35:12.061Z,51.40
2018-09-08T09:37:41.797Z,51.50
2018-09-08T09:40:11.375Z,52.30
2018-09-08T09:42:40.161Z,52.70
2018-09-08T09:45:09.680Z,53.40
2018-09-08T09:47:38.253Z,53.00
2018-09-08T09:50:08.525Z,53.20
2018-09-08T09:52:38.076Z,53.40
2018-09-08T09:55:06.870Z,53.00
2018-09-08T09:57:36.171Z,53.00
2018-09-08T10:00:06.792Z,53.40
2018-09-08T10:02:41.685Z,53.70
2018-09-08T10:05:14.222Z,54.40
2018-09-08T10:07:44.323Z,54.00
2018-09-08T10:10:17.431Z,53.40
2018-09-08T10:12:46.064Z,53.30
2018-09-08T10:15:15.243Z,53.30
2018-09-08T10:17:45.119Z,53.70
2018-09-08T10:20:14.968Z,53.90
2018-09-08T10:22:43.630Z,53.40
2018-09-08T10:25:15.423Z,53.70
2018-09-08T10:27:44.720Z,53.30
2018-09-08T10:30:13.924Z,52.80
2018-09-08T10:32:43.489Z,52.70
2018-09-08T10:35:12.199Z,53.30
2018-09-08T10:37:40.822Z,53.40
2018-09-08T10:40:10.472Z,54.20
2018-09-08T10:42:39.097Z,54.50
2018-09-08T10:45:07.625Z,53.50
2018-09-08T10:47:36.977Z,53.70
2018-09-08T10:50:06.037Z,54.60
2018-09-08T10:52:39.740Z,54.40
2018-09-08T10:55:08.364Z,53.00
2018-09-08T10:57:36.985Z,53.90
2018-09-08T11:00:06.319Z,53.80
2018-09-08T11:02:35.180Z,54.30
2018-09-08T11:05:03.785Z,54.50
2018-09-08T11:07:32.769Z,54.50
2018-09-08T11:10:01.625Z,55.00
2018-09-08T11:12:30.608Z,54.10
2018-09-08T11:14:59.235Z,54.00
2018-09-08T11:17:28.376Z,54.70
2018-09-08T11:19:56.987Z,54.30
2018-09-08T11:22:25.694Z,54.90
2018-09-08T11:24:54.599Z,53.70
2018-09-08T11:27:23.183Z,53.80
2018-09-08T11:29:51.865Z,54.40
2018-09-08T11:32:20.371Z,53.70
2018-09-08T11:34:49.223Z,54.80
2018-09-08T11:37:18.089Z,53.30
2018-09-08T11:39:46.782Z,53.70
2018-09-08T11:42:15.445Z,54.50
2018-09-08T11:44:44.357Z,53.00
2018-09-08T11:47:13.244Z,53.70
2018-09-08T11:49:42.044Z,54.10
2018-09-08T11:52:10.974Z,52.80
2018-09-08T11:54:39.536Z,52.50
2018-09-08T11:57:08.128Z,52.30
2018-09-08T11:59:36.746Z,52.20
2018-09-08T12:02:05.512Z,52.20
2018-09-08T12:04:33.998Z,51.60
2018-09-08T12:07:02.602Z,52.30
2018-09-08T12:09:31.175Z,53.90
2018-09-08T12:11:59.811Z,53.80
2018-09-08T12:14:28.400Z,53.50
2018-09-08T12:16:57.038Z,52.50
2018-09-08T12:19:25.590Z,53.70
2018-09-08T12:21:54.198Z,51.70
2018-09-08T12:24:23.929Z,52.40
2018-09-08T12:26:52.539Z,51.70
2018-09-08T12:29:21.026Z,52.80
2018-09-08T12:31:50.297Z,51.70
2018-09-08T12:34:18.851Z,51.90
2018-09-08T12:36:47.496Z,51.80
2018-09-08T12:39:16.342Z,52.70
2018-09-08T12:41:44.960Z,51.30
2018-09-08T12:44:13.559Z,53.60
2018-09-08T12:46:42.171Z,51.30
2018-09-08T12:49:11.308Z,51.40
2018-09-08T12:51:39.906Z,51.30
2018-09-08T12:54:08.497Z,51.40
2018-09-08T12:56:37.065Z,52.50
2018-09-08T12:59:06.180Z,50.50
2018-09-08T13:01:34.721Z,50.30
2018-09-08T13:04:03.619Z,51.10
2018-09-08T13:06:32.307Z,51.70
2018-09-08T13:09:00.892Z,52.20
2018-09-08T13:11:30.449Z,49.50
2018-09-08T13:13:59.051Z,50.60
2018-09-08T13:16:27.823Z,51.20
2018-09-08T13:18:56.352Z,50.80
2018-09-08T13:21:24.909Z,49.70
2018-09-08T13:23:54.665Z,49.70
2018-09-08T13:26:23.816Z,50.50
2018-09-08T13:28:52.658Z,50.10
2018-09-08T13:31:21.548Z,51.10
2018-09-08T13:33:50.147Z,51.10
2018-09-08T13:36:19.136Z,49.70
2018-09-08T13:38:47.761Z,48.50
2018-09-08T13:41:16.949Z,50.00
2018-09-08T13:43:45.612Z,48.90
2018-09-08T13:46:14.201Z,50.40
2018-09-08T13:48:42.816Z,50.40
2018-09-08T13:51:12.151Z,49.20
2018-09-08T13:53:40.919Z,49.40
2018-09-08T13:56:09.762Z,49.10
2018-09-08T13:58:39.067Z,51.30
2018-09-08T14:01:09.476Z,51.70
2018-09-08T14:03:38.875Z,51.60
2018-09-08T14:06:07.494Z,50.50
2018-09-08T14:08:36.350Z,49.20
2018-09-08T14:11:05.312Z,50.70
2018-09-08T14:13:34.069Z,50.20
2018-09-08T14:16:03.161Z,49.80
2018-09-08T14:18:31.971Z,51.10
2018-09-08T14:21:01.157Z,50.90
2018-09-08T14:23:29.840Z,50.60
2018-09-08T14:25:58.836Z,50.00
2018-09-08T14:28:27.722Z,50.00
2018-09-08T14:30:56.926Z,51.40
2018-09-08T14:33:25.545Z,52.10
2018-09-08T14:35:54.193Z,52.60
2018-09-08T14:38:22.847Z,52.80
2018-09-08T14:40:51.510Z,49.60
2018-09-08T14:43:20.161Z,51.90
2018-09-08T14:45:49.149Z,51.10
2018-09-08T14:48:17.794Z,52.00
2018-09-08T14:50:46.552Z,50.00
2018-09-08T14:53:15.295Z,50.50
2018-09-08T14:55:43.880Z,51.10
2018-09-08T14:58:12.440Z,49.90
2018-09-08T15:00:41.005Z,51.50
2018-09-08T15:03:10.614Z,52.30
2018-09-08T15:05:39.199Z,52.90
2018-09-08T15:08:08.116Z,51.00
2018-09-08T15:10:36.997Z,51.10
2018-09-08T15:13:05.799Z,51.90
2018-09-08T15:15:34.384Z,52.70
2018-09-08T15:18:03.153Z,49.60
2018-09-08T15:20:32.158Z,49.90
2018-09-08T15:23:00.927Z,50.30
2018-09-08T15:25:29.600Z,51.10
2018-09-08T15:27:58.279Z,52.10
2018-09-08T15:30:27.071Z,51.10
2018-09-08T15:32:56.246Z,51.80
2018-09-08T15:35:25.044Z,53.00
2018-09-08T15:37:53.680Z,52.10
2018-09-08T15:40:26.207Z,51.80
2018-09-08T15:42:54.997Z,52.90
2018-09-08T15:45:23.722Z,50.00
2018-09-08T15:47:52.936Z,51.30
2018-09-08T15:50:22.088Z,51.80
2018-09-08T15:52:51.518Z,50.50
2018-09-08T15:55:21.148Z,49.50
2018-09-08T15:57:50.721Z,50.90
2018-09-08T16:00:19.773Z,50.90
2018-09-08T16:02:49.562Z,52.40
2018-09-08T16:05:18.719Z,53.50
2018-09-08T16:07:47.363Z,53.80
2018-09-08T16:10:16.633Z,54.30
2018-09-08T16:12:45.295Z,54.10
2018-09-08T16:15:14.536Z,52.90
2018-09-08T16:17:43.438Z,53.80
2018-09-08T16:20:12.735Z,54.40
2018-09-08T16:22:41.737Z,53.50
2018-09-08T16:25:11.340Z,52.70
2018-09-08T16:27:40.111Z,53.30
2018-09-08T16:30:08.918Z,52.60
2018-09-08T16:32:37.602Z,53.70
2018-09-08T16:35:06.544Z,53.60
2018-09-08T16:37:35.896Z,54.30
2018-09-08T16:40:04.835Z,54.90
2018-09-08T16:42:33.685Z,55.10
2018-09-08T16:45:02.367Z,55.30
2018-09-08T16:47:31.051Z,55.80
2018-09-08T16:50:00.065Z,56.30
2018-09-08T16:52:29.339Z,56.90
2018-09-08T16:54:58.180Z,57.10
2018-09-08T16:57:27.356Z,57.20
2018-09-08T16:59:56.414Z,57.30
2018-09-08T17:02:25.338Z,57.30
2018-09-08T17:04:54.319Z,57.30
2018-09-08T17:07:23.118Z,57.60
2018-09-08T17:09:51.698Z,57.60
2018-09-08T17:12:20.976Z,57.70
2018-09-08T17:14:49.912Z,57.90
2018-09-08T17:17:18.562Z,58.30
2018-09-08T17:19:47.110Z,58.70
2018-09-08T17:22:15.795Z,58.90
2018-09-08T17:24:44.408Z,59.30
2018-09-08T17:27:13.017Z,58.80
2018-09-08T17:29:41.650Z,58.80
2018-09-08T17:32:10.377Z,59.30
2018-09-08T17:34:39.756Z,58.80
2018-09-08T17:37:08.435Z,59.30
2018-09-08T17:39:37.088Z,59.80
2018-09-08T17:42:05.635Z,60.30
2018-09-08T17:44:34.695Z,60.50
2018-09-08T17:47:03.219Z,60.00
2018-09-08T17:49:32.015Z,59.80
2018-09-08T17:52:00.805Z,60.60
2018-09-08T17:54:29.843Z,60.80
2018-09-08T17:56:58.437Z,60.80
2018-09-08T17:59:27.540Z,60.50
2018-09-08T18:01:56.984Z,60.90
2018-09-08T18:04:25.917Z,60.40
2018-09-08T18:06:54.436Z,60.30
2018-09-08T18:09:23.329Z,60.80
2018-09-08T18:11:52.552Z,61.50
2018-09-08T18:14:21.603Z,61.50
2018-09-08T18:16:50.273Z,61.30
2018-09-08T18:19:18.835Z,61.40
2018-09-08T18:21:47.601Z,61.80
2018-09-08T18:24:16.878Z,62.00
2018-09-08T18:26:45.549Z,62.10
2018-09-08T18:29:15.049Z,62.30
2018-09-08T18:31:43.871Z,62.20
2018-09-08T18:34:12.819Z,62.10
2018-09-08T18:36:41.405Z,62.30
2018-09-08T18:39:10.004Z,62.30
2018-09-08T18:41:38.777Z,62.60
2018-09-08T18:44:08.074Z,62.60
2018-09-08T18:46:37.391Z,62.80
2018-09-08T18:49:05.972Z,62.90
2018-09-08T18:51:34.839Z,62.40
2018-09-08T18:54:04.474Z,62.20
2018-09-08T18:56:34.130Z,62.30
2018-09-08T18:59:03.378Z,62.40
2018-09-08T19:01:32.559Z,61.80
2018-09-08T19:04:01.288Z,62.20
2018-09-08T19:06:30.184Z,63.00
2018-09-08T19:09:01.121Z,63.50
2018-09-08T19:11:31.145Z,63.50
2018-09-08T19:14:00.925Z,64.00
2018-09-08T19:16:30.341Z,63.80
2018-09-08T19:18:59.464Z,63.50
2018-09-08T19:21:29.103Z,63.60
2018-09-08T19:24:02.971Z,63.80
2018-09-08T19:26:31.925Z,63.70
2018-09-08T19:29:05.971Z,64.10
2018-09-08T19:31:34.886Z,63.90
2018-09-08T19:34:03.840Z,63.90
2018-09-08T19:36:32.421Z,63.70
2018-09-08T19:39:00.995Z,63.70
2018-09-08T19:41:29.592Z,63.40
2018-09-08T19:43:58.176Z,63.30
2018-09-08T19:46:31.877Z,63.50
2018-09-08T19:49:00.453Z,63.70
2018-09-08T19:51:29.928Z,64.00
2018-09-08T19:53:59.850Z,64.00
2018-09-08T19:56:33.899Z,64.20
2018-09-08T19:59:02.554Z,64.60
2018-09-08T20:01:31.739Z,64.60
2018-09-08T20:04:00.319Z,64.60
2018-09-08T20:06:28.870Z,65.50
2018-09-08T20:08:57.912Z,65.70
2018-09-08T20:11:27.147Z,65.70
2018-09-08T20:13:55.712Z,66.40
2018-09-08T20:16:24.661Z,66.50
2018-09-08T20:18:53.906Z,66.90
2018-09-08T20:21:22.513Z,67.30
2018-09-08T20:23:51.548Z,67.30
2018-09-08T20:26:20.179Z,67.10
2018-09-08T20:28:48.791Z,67.30
2018-09-08T20:31:17.603Z,67.00
2018-09-08T20:33:46.134Z,67.20
2018-09-08T20:36:14.971Z,67.10
2018-09-08T20:38:43.538Z,67.30
2018-09-08T20:41:12.102Z,67.20
2018-09-08T20:43:40.909Z,67.10
2018-09-08T20:46:09.554Z,67.10
2018-09-08T20:48:38.320Z,66.90
2018-09-08T20:51:07.604Z,67.00
2018-09-08T20:53:37.354Z,67.80
2018-09-08T20:56:05.998Z,67.60
2018-09-08T20:58:34.976Z,67.70
2018-09-08T21:01:03.554Z,67.60
2018-09-08T21:03:32.171Z,66.90
2018-09-08T21:06:00.682Z,65.90
2018-09-08T21:08:33.362Z,65.50
2018-09-08T21:11:02.100Z,65.80
2018-09-08T21:13:30.731Z,65.60
2018-09-08T21:15:59.890Z,65.10
2018-09-08T21:18:28.724Z,65.00
2018-09-08T21:20:57.383Z,65.30
2018-09-08T21:23:26.879Z,65.20
2018-09-08T21:25:55.499Z,65.30
2018-09-08T21:28:24.741Z,65.20
2018-09-08T21:30:53.456Z,66.00
2018-09-08T21:33:22.293Z,65.70
2018-09-08T21:35:50.972Z,65.90
2018-09-08T21:38:19.572Z,66.70
2018-09-08T21:40:48.343Z,67.00
2018-09-08T21:43:17.250Z,67.10
2018-09-08T21:45:46.166Z,66.80
2018-09-08T21:48:14.728Z,66.10
2018-09-08T21:50:43.863Z,65.80
2018-09-08T21:53:12.912Z,65.80
2018-09-08T21:55:41.895Z,65.70
2018-09-08T21:58:10.522Z,65.90
2018-09-08T22:00:39.319Z,66.00
2018-09-08T22:03:07.975Z,65.80
2018-09-08T22:05:36.501Z,66.10
2018-09-08T22:08:05.334Z,65.30
2018-09-08T22:10:33.891Z,65.00
2018-09-08T22:13:02.909Z,64.70
2018-09-08T22:15:31.664Z,64.60
2018-09-08T22:18:00.369Z,64.70
2018-09-08T22:20:29.609Z,64.50
2018-09-08T22:22:58.661Z,64.40
2018-09-08T22:25:28.180Z,64.00
2018-09-08T22:27:56.680Z,64.10
2018-09-08T22:30:25.357Z,64.40
2018-09-08T22:32:54.404Z,64.60
2018-09-08T22:35:23.087Z,64.30
2018-09-08T22:37:52.091Z,64.60
2018-09-08T22:40:20.877Z,64.50
2018-09-08T22:42:49.895Z,64.50
2018-09-08T22:45:18.699Z,64.80
2018-09-08T22:47:47.347Z,65.10
2018-09-08T22:50:16.056Z,65.70
2018-09-08T22:52:45.072Z,66.20
2018-09-08T22:55:13.959Z,66.60
2018-09-08T22:57:42.608Z,67.00
2018-09-08T23:00:11.447Z,66.80
2018-09-08T23:02:40.137Z,67.10
2018-09-08T23:05:09.115Z,67.40
2018-09-08T23:07:38.062Z,67.50
2018-09-08T23:10:06.750Z,67.20
2018-09-08T23:12:35.818Z,67.00
2018-09-08T23:15:04.773Z,67.00
2018-09-08T23:17:33.439Z,67.00
2018-09-08T23:20:02.340Z,66.50
2018-09-08T23:22:31.124Z,65.20
2018-09-08T23:24:59.692Z,64.80
2018-09-08T23:27:28.641Z,64.70
2018-09-08T23:29:58.262Z,64.60
2018-09-08T23:32:27.229Z,64.50
2018-09-08T23:34:56.142Z,64.40
2018-09-08T23:37:24.810Z,64.40
2018-09-08T23:39:53.714Z,64.80
2018-09-08T23:42:22.322Z,64.30
2018-09-08T23:44:51.096Z,63.60
2018-09-08T23:47:19.615Z,64.20
2018-09-08T23:49:48.273Z,63.60
2018-09-08T23:52:16.823Z,63.60
2018-09-08T23:54:45.431Z,64.40
2018-09-08T23:57:14.097Z,64.40
2018-09-08T23:59:42.631Z,64.90
